Powhatano, Virginia
Current Conditions -  °F | °C
As of 9:55 PM on Friday 19 Dec 2014 (Local Time) from KFCI Reporting Station
Clear Clear  
Wind Chill: 31°   Ceiling: Unl
Heat Index: 36°   Visibility: 10mi
Dew Point: 16°   Wind: 6mph
Humidity: 44%   Direction: 20°NNE
Pressure: 30.25"   Gusts: NA
Location:  37.5492°N, 77.935°W
Report Text: KFCI 200255Z AUTO 02005KT 10SM CLR 02/M09 A3025 RMK AO1 52014
Loading
Personal Weather Stations






























Interactive Weather Map New forecast layout! Learn more

10-Day Weather Forecast

Advertisements
Track Severe Weather on mobile